CST,Max TemperatureF,Mean TemperatureF,Min TemperatureF,Max Dew PointF,MeanDew PointF,Min DewpointF,Max Humidity, Mean Humidity, Min Humidity, Max Sea Level PressureIn, Mean Sea Level PressureIn, Min Sea Level PressureIn, Max VisibilityMiles, Mean VisibilityMiles, Min VisibilityMiles, Max Wind SpeedMPH, Mean Wind SpeedMPH, Max Gust SpeedMPH,PrecipitationIn, CloudCover, Events, WindDirDegrees
2012-11-1,48,43,38,41,40,37,100,86,71,30.09,30.01,29.91,10,4,0,17,8,21,0.00,4,Fog,87
2012-11-2,47,37,26,38,35,27,100,83,65,30.19,29.99,29.82,10,6,1,18,8,24,0.00,5,,309
2012-11-3,56,40,24,36,31,24,100,74,47,30.29,30.22,30.17,10,10,6,12,5,15,0.00,1,,1
2012-11-4,50,40,30,42,33,28,100,86,71,30.21,30.13,30.06,10,8,0,16,5,21,0.01,6,Fog-Rain,58
2012-11-5,54,46,38,45,36,32,92,70,48,30.26,30.15,29.98,10,10,5,16,8,21,T,7,Rain,299
2012-11-6,57,42,27,44,27,18,82,53,24,30.20,30.14,29.99,10,10,10,31,13,40,T,1,,317
2012-11-7,66,45,24,31,26,21,88,56,24,30.19,29.98,29.77,10,10,10,33,13,39,0.00,0,,199
2012-11-8,56,44,32,36,33,28,89,68,46,30.01,29.93,29.76,10,8,1,22,12,29,0.00,2,,8
2012-11-9,38,36,33,37,35,32,100,96,92,29.99,29.83,29.66,5,2,0,15,9,18,0.00,8,Fog,75
2012-11-10,38,28,18,36,29,11,100,90,80,29.95,29.66,29.55,10,5,0,35,13,45,0.08,8,Fog-Snow,321
2012-11-11,26,16,6,13,8,1,76,66,55,30.25,30.11,29.86,10,10,10,24,12,31,0.00,1,,294
2012-11-12,38,24,9,19,14,5,83,62,40,30.36,30.31,30.14,10,10,10,20,9,23,0.00,0,,261
2012-11-13,46,31,16,30,22,14,100,73,45,30.35,30.30,30.25,10,10,10,13,5,14,0.00,2,,253
2012-11-14,56,38,20,31,26,18,96,64,32,30.31,30.22,30.13,10,10,10,30,8,36,0.00,0,,246
2012-11-15,50,37,23,30,25,21,92,64,36,30.50,30.40,30.19,10,10,10,13,6,17,0.00,0,,348
2012-11-16,59,42,24,31,27,21,88,59,30,30.44,30.23,30.07,10,10,10,30,14,38,0.00,0,,189
2012-11-17,67,49,30,34,30,26,92,59,26,30.07,30.03,29.96,10,10,10,18,8,23,0.00,0,,242
2012-11-18,69,48,26,38,31,24,92,57,22,30.02,29.94,29.84,10,10,10,23,10,35,0.00,1,,208
2012-11-19,61,44,26,32,24,14,82,49,16,30.23,30.13,29.93,10,10,7,15,7,20,0.00,0,,306
2012-11-20,72,47,22,30,23,18,81,49,17,30.22,30.09,29.98,10,10,10,26,9,30,0.00,0,,234
2012-11-21,76,53,29,27,23,18,78,45,11,29.98,29.83,29.70,10,10,10,22,8,26,0.00,0,,241
2012-11-22,56,39,21,36,25,10,79,55,30,30.51,30.12,29.69,10,10,9,32,17,43,T,2,,314
2012-11-23,40,25,10,15,11,7,76,57,37,30.64,30.51,30.27,10,10,10,23,8,29,0.00,0,,289
2012-11-24,62,43,24,31,21,15,68,44,20,30.22,29.98,29.82,10,10,10,18,7,23,0.00,1,,277
2012-11-25,46,38,29,32,29,22,100,76,52,30.24,30.06,29.94,10,4,0,18,5,22,0.25,8,Fog-Snow,16
2012-11-26,29,20,10,25,18,10,100,87,74,30.52,30.36,30.19,10,5,1,16,6,20,0.13,6,Snow,3
2012-11-27,32,23,14,25,17,13,92,82,72,30.38,30.29,30.23,10,10,10,13,7,17,0.00,0,,248
2012-11-28,42,24,6,33,21,4,92,76,59,30.38,30.19,30.07,10,10,10,23,8,28,0.00,0,,237
2012-11-29,55,37,18,36,24,15,92,69,46,30.10,30.02,29.89,10,10,10,22,5,28,0.00,0,,255
2012-11-30,58,40,22,36,28,21,96,68,40,30.10,29.97,29.80,10,10,9,23,8,25,0.00,0,,196